Time;durP1;ratioP1;P1;durP2;ratioP2;P2;SDS_P1;SDS_P2;PMS_P1;PMS_P2;Temp;Humidity;BMP_temperature;BMP_pressure;BME280_temperature;BME280_humidity;BME280_pressure;Samples;Min_cycle;Max_cycle;Signal;HPM_P1;HPM_P2
2023/10/28 00:02:01;;;;;;;3.30;0.50;;;;;;;14.10;100.00;99211.02;104810;1253;66905;-52
2023/10/28 00:04:29;;;;;;;1.90;0.50;;;;;;;14.11;100.00;99202.31;104710;1259;72673;-51
2023/10/28 00:06:56;;;;;;;1.60;0.50;;;;;;;14.11;100.00;99201.59;104708;1254;61569;-53
2023/10/28 00:09:24;;;;;;;2.20;0.70;;;;;;;14.10;100.00;99188.09;104863;1259;59251;-51
2023/10/28 00:11:51;;;;;;;3.40;0.50;;;;;;;14.11;100.00;99192.02;104676;1254;73349;-51
2023/10/28 00:14:20;;;;;;;2.00;0.50;;;;;;;14.12;100.00;99196.26;104722;1259;67111;-52
2023/10/28 00:16:49;;;;;;;2.50;0.50;;;;;;;14.13;100.00;99197.08;104939;1254;71818;-50
2023/10/28 00:19:16;;;;;;;4.10;0.50;;;;;;;14.15;100.00;99187.74;104695;1254;61839;-52
2023/10/28 00:21:43;;;;;;;1.90;0.50;;;;;;;14.16;100.00;99175.26;104789;1259;60502;-53
2023/10/28 00:24:11;;;;;;;1.30;0.50;;;;;;;14.17;100.00;99168.30;105018;1259;72788;-55
2023/10/28 00:26:39;;;;;;;4.60;0.50;;;;;;;14.18;100.00;99171.25;104549;1254;65981;-52
2023/10/28 00:29:07;;;;;;;1.70;0.50;;;;;;;14.19;100.00;99179.48;104770;1258;71459;-52
2023/10/28 00:31:34;;;;;;;2.50;0.50;;;;;;;14.20;100.00;99170.05;104757;1254;61358;-51
2023/10/28 00:34:02;;;;;;;3.60;0.50;;;;;;;14.21;100.00;99154.30;104952;1254;60556;-51
2023/10/28 00:36:29;;;;;;;1.20;0.50;;;;;;;14.23;100.00;99152.52;104521;1254;74310;-52
2023/10/28 00:38:57;;;;;;;2.30;0.40;;;;;;;14.23;100.00;99165.86;105237;1254;65714;-50
2023/10/28 00:41:24;;;;;;;8.10;0.60;;;;;;;14.23;100.00;99154.48;104635;1253;72701;-52
2023/10/28 00:43:52;;;;;;;1.20;0.60;;;;;;;14.24;100.00;99148.67;104644;1254;61703;-53
2023/10/28 00:46:19;;;;;;;1.50;0.40;;;;;;;14.25;100.00;99158.35;104904;1254;60556;-51
2023/10/28 00:48:48;;;;;;;1.90;0.60;;;;;;;14.26;100.00;99150.66;104736;1254;72612;-54
2023/10/28 00:51:15;;;;;;;1.00;0.40;;;;;;;14.27;100.00;99143.54;104652;1260;65972;-52
2023/10/28 00:53:42;;;;;;;0.80;0.30;;;;;;;14.30;100.00;99148.52;104604;1255;73175;-55
2023/10/28 00:56:11;;;;;;;4.90;0.40;;;;;;;14.32;100.00;99155.05;104717;1257;61734;-53
2023/10/28 00:58:39;;;;;;;2.00;0.60;;;;;;;14.35;100.00;99159.02;104562;1259;60501;-52
2023/10/28 01:01:10;;;;;;;9.30;0.40;;;;;;;14.37;100.00;99148.92;104655;1254;72706;-51
2023/10/28 01:03:40;;;;;;;0.70;0.40;;;;;;;14.41;100.00;99149.41;104623;1254;66779;-51
2023/10/28 01:06:12;;;;;;;2.90;0.40;;;;;;;14.43;100.00;99165.34;108380;1253;71453;-51
2023/10/28 01:08:39;;;;;;;4.30;0.60;;;;;;;14.45;100.00;99168.81;104695;1259;60638;-50
2023/10/28 01:11:07;;;;;;;2.20;0.50;;;;;;;14.46;100.00;99166.02;105292;1254;60450;-52
2023/10/28 01:13:35;;;;;;;6.00;0.40;;;;;;;14.48;100.00;99175.10;104581;1254;72741;-55
2023/10/28 01:16:04;;;;;;;4.50;0.60;;;;;;;14.49;100.00;99180.80;104761;1253;65823;-52
2023/10/28 01:18:32;;;;;;;2.40;0.40;;;;;;;14.49;100.00;99184.19;105693;1256;72714;-53
2023/10/28 01:21:08;;;;;;;4.30;0.40;;;;;;;14.50;100.00;99183.21;105386;1256;60651;-51
2023/10/28 01:23:35;;;;;;;0.70;0.40;;;;;;;14.53;100.00;99198.23;104504;1253;60587;-52
2023/10/28 01:26:03;;;;;;;0.90;0.50;;;;;;;14.53;100.00;99192.20;104530;1255;72654;-49
2023/10/28 01:28:30;;;;;;;1.60;0.30;;;;;;;14.54;100.00;99194.84;108892;1254;66298;-51
2023/10/28 01:30:59;;;;;;;1.10;0.40;;;;;;;14.56;100.00;99192.72;105501;1256;72785;-51
2023/10/28 01:33:27;;;;;;;1.40;0.50;;;;;;;14.57;100.00;99202.73;104627;1256;60707;-54
2023/10/28 01:35:55;;;;;;;2.40;0.40;;;;;;;14.59;100.00;99200.97;108140;1253;60084;-52
2023/10/28 01:38:23;;;;;;;3.80;0.50;;;;;;;14.61;100.00;99200.85;104593;1254;73918;-52
2023/10/28 01:40:51;;;;;;;4.70;0.40;;;;;;;14.63;100.00;99210.77;108746;1254;67420;-53
2023/10/28 01:43:19;;;;;;;1.30;0.60;;;;;;;14.64;100.00;99210.86;105331;1256;73193;-49
2023/10/28 01:45:46;;;;;;;0.60;0.40;;;;;;;14.67;100.00;99215.20;104612;1256;60949;-52
2023/10/28 01:48:14;;;;;;;3.50;0.50;;;;;;;14.69;100.00;99216.32;104605;1254;59359;-50
2023/10/28 01:50:42;;;;;;;1.50;0.30;;;;;;;14.71;100.00;99215.80;108725;1256;74249;-52
2023/10/28 01:53:09;;;;;;;1.50;0.40;;;;;;;14.72;100.00;99212.77;108455;1259;65726;-53
2023/10/28 01:55:37;;;;;;;2.10;0.40;;;;;;;14.74;100.00;99210.15;104697;1259;72728;-52
2023/10/28 01:58:04;;;;;;;2.90;0.40;;;;;;;14.76;100.00;99211.09;108859;1253;60482;-54
2023/10/28 02:00:31;;;;;;;1.00;0.30;;;;;;;14.78;100.00;99215.81;108832;1253;62199;-53
2023/10/28 02:03:02;;;;;;;3.50;0.40;;;;;;;14.81;100.00;99221.58;108976;1253;72660;-55
2023/10/28 02:05:29;;;;;;;0.60;0.40;;;;;;;14.83;100.00;99231.89;108881;1253;67515;-55
2023/10/28 02:07:56;;;;;;;2.20;0.40;;;;;;;14.85;100.00;99235.17;108895;1253;72393;-54
2023/10/28 02:10:25;;;;;;;0.40;0.30;;;;;;;14.88;100.00;99242.35;108763;1254;60402;-53
2023/10/28 02:12:52;;;;;;;2.10;0.30;;;;;;;14.91;100.00;99248.63;108829;1253;60599;-54
2023/10/28 02:15:20;;;;;;;1.40;0.30;;;;;;;14.95;100.00;99250.16;108834;1253;73854;-54
2023/10/28 02:17:48;;;;;;;2.40;0.30;;;;;;;15.00;100.00;99261.52;108715;1253;67493;-54
2023/10/28 02:20:16;;;;;;;0.90;0.20;;;;;;;15.05;100.00;99262.36;108947;1256;74855;-54
2023/10/28 02:22:43;;;;;;;0.30;0.20;;;;;;;15.10;100.00;99271.40;108834;1253;61740;-54
2023/10/28 02:25:11;;;;;;;1.20;0.10;;;;;;;15.14;100.00;99266.19;108950;1253;60473;-55
2023/10/28 02:27:38;;;;;;;0.90;0.20;;;;;;;15.17;100.00;99285.56;108199;1259;72191;-55
2023/10/28 02:30:07;;;;;;;0.30;0.10;;;;;;;15.19;100.00;99295.70;104553;1253;65891;-52
2023/10/28 02:32:35;;;;;;;2.20;0.10;;;;;;;15.20;100.00;99311.19;104719;1257;73338;-53
2023/10/28 02:35:03;;;;;;;0.10;0.00;;;;;;;15.20;100.00;99311.92;104652;1254;60319;-54
2023/10/28 02:37:31;;;;;;;0.70;0.00;;;;;;;15.17;100.00;99329.81;105447;1254;60413;-55
2023/10/28 02:39:58;;;;;;;2.20;0.00;;;;;;;15.13;100.00;99338.59;104470;1253;73191;-52
2023/10/28 02:42:25;;;;;;;2.00;0.00;;;;;;;15.07;100.00;99338.47;104792;1253;66955;-54
2023/10/28 02:44:53;;;;;;;0.60;0.00;;;;;;;14.99;100.00;99328.80;104769;1256;72598;-54
2023/10/28 02:47:20;;;;;;;0.20;0.00;;;;;;;14.88;100.00;99324.36;104721;1259;61796;-52
2023/10/28 02:49:48;;;;;;;0.00;0.00;;;;;;;14.79;100.00;99310.77;104616;1256;60498;-52
2023/10/28 02:52:16;;;;;;;3.30;0.00;;;;;;;14.70;100.00;99309.04;108797;1253;73917;-53
2023/10/28 02:54:43;;;;;;;0.30;0.00;;;;;;;14.63;100.00;99296.77;108783;1255;67779;-54
2023/10/28 02:57:10;;;;;;;1.80;0.10;;;;;;;14.56;100.00;99281.52;108808;1254;70211;-54
2023/10/28 02:59:37;;;;;;;0.00;0.00;;;;;;;14.49;100.00;99273.41;107099;1258;60645;-52
2023/10/28 03:02:05;;;;;;;0.10;0.00;;;;;;;14.41;100.00;99269.29;104527;1260;60429;-54
2023/10/28 03:04:32;;;;;;;1.30;0.00;;;;;;;14.35;100.00;99251.24;104552;1253;73914;-52
2023/10/28 03:07:00;;;;;;;0.10;0.00;;;;;;;14.29;100.00;99235.49;104690;1256;65763;-53
2023/10/28 03:09:27;;;;;;;0.00;0.00;;;;;;;14.23;100.00;99227.56;104466;1259;72717;-52
2023/10/28 03:11:54;;;;;;;0.10;0.00;;;;;;;14.20;100.00;99221.52;105481;1260;61756;-52
2023/10/28 03:14:22;;;;;;;0.90;0.00;;;;;;;14.17;100.00;99204.75;104489;1257;60705;-53
2023/10/28 03:16:49;;;;;;;0.00;0.00;;;;;;;14.14;100.00;99193.39;104558;1254;76194;-54
2023/10/28 03:19:18;;;;;;;0.50;0.00;;;;;;;14.11;100.00;99187.28;104799;1256;66913;-54
2023/10/28 03:21:46;;;;;;;0.00;0.00;;;;;;;14.08;100.00;99177.92;104660;1254;72684;-54
2023/10/28 03:24:15;;;;;;;0.30;0.00;;;;;;;14.04;100.00;99176.44;105268;1256;60566;-52
2023/10/28 03:26:42;;;;;;;0.10;0.00;;;;;;;13.99;100.00;99158.21;105131;1257;60543;-55
2023/10/28 03:29:09;;;;;;;0.50;0.00;;;;;;;13.95;100.00;99147.11;104837;1258;75169;-54
2023/10/28 03:31:38;;;;;;;0.60;0.00;;;;;;;13.91;100.00;99140.05;105481;1259;65870;-54
2023/10/28 03:34:05;;;;;;;0.10;0.00;;;;;;;13.88;100.00;99127.66;105736;1253;72334;-54
2023/10/28 03:36:33;;;;;;;1.10;0.00;;;;;;;13.84;100.00;99119.80;106151;1257;60832;-54
2023/10/28 03:39:00;;;;;;;0.10;0.00;;;;;;;13.82;100.00;99105.14;104645;1254;60565;-54
2023/10/28 03:41:28;;;;;;;0.00;0.00;;;;;;;13.80;100.00;99089.24;104781;1253;72548;-53
2023/10/28 03:43:55;;;;;;;0.60;0.00;;;;;;;13.78;100.00;99076.80;104780;1253;66261;-52
2023/10/28 03:46:25;;;;;;;0.00;0.00;;;;;;;13.76;100.00;99063.05;104585;1253;74308;-53
2023/10/28 03:48:52;;;;;;;0.20;0.00;;;;;;;13.73;100.00;99061.85;107660;1256;62914;-53
2023/10/28 03:51:19;;;;;;;1.00;0.00;;;;;;;13.70;100.00;99054.11;104733;1254;60517;-52
2023/10/28 03:53:47;;;;;;;1.30;0.00;;;;;;;13.66;100.00;99039.97;104735;1253;72665;-52
2023/10/28 03:56:14;;;;;;;1.20;0.00;;;;;;;13.63;100.00;99034.92;104808;1257;66049;-53
2023/10/28 03:58:41;;;;;;;0.20;0.00;;;;;;;13.60;100.00;99024.50;104837;1257;72765;-53
2023/10/28 04:01:10;;;;;;;0.20;0.00;;;;;;;13.59;100.00;99019.76;104839;1256;60578;-51
2023/10/28 04:03:37;;;;;;;3.20;0.00;;;;;;;13.57;100.00;99020.58;104862;1254;60290;-53
2023/10/28 04:06:05;;;;;;;0.00;0.00;;;;;;;13.55;100.00;99010.96;104917;1254;73887;-53
2023/10/28 04:08:34;;;;;;;0.20;0.00;;;;;;;13.53;100.00;98997.06;105531;1254;65910;-51
2023/10/28 04:11:03;;;;;;;0.60;0.00;;;;;;;13.50;100.00;98996.58;104850;1253;71346;-52
2023/10/28 04:13:31;;;;;;;3.80;0.10;;;;;;;13.47;100.00;98987.81;104816;1256;62114;-52
2023/10/28 04:15:59;;;;;;;0.90;0.00;;;;;;;13.43;100.00;98976.23;105559;1254;60565;-52
2023/10/28 04:18:26;;;;;;;1.20;0.00;;;;;;;13.40;100.00;98963.98;104736;1254;72700;-53
2023/10/28 04:20:54;;;;;;;0.00;0.00;;;;;;;13.37;100.00;98945.61;104697;1254;65817;-52
2023/10/28 04:26:02;;;;;;;0.60;0.00;;;;;;;13.34;100.00;98956.52;101470;1292;601067;-54
2023/10/28 04:28:30;;;;;;;4.40;0.00;;;;;;;13.31;100.00;99102.48;103829;1268;59287;-54
2023/10/28 04:30:58;;;;;;;0.10;0.00;;;;;;;13.31;100.00;99057.81;103992;1273;60074;-51
2023/10/28 04:33:25;;;;;;;0.10;0.00;;;;;;;13.29;100.00;99036.00;106986;1272;70658;-53
2023/10/28 04:35:53;;;;;;;0.90;0.00;;;;;;;13.24;100.00;99011.45;103884;1267;67064;-54
2023/10/28 04:38:21;;;;;;;1.10;0.00;;;;;;;13.21;100.00;98990.04;103991;1267;73790;-52
2023/10/28 04:40:51;;;;;;;0.00;0.00;;;;;;;13.18;100.00;98974.55;104094;1267;142787;-52
2023/10/28 04:43:19;;;;;;;1.90;0.00;;;;;;;13.17;100.00;98963.17;104426;1264;59299;-53
2023/10/28 04:45:48;;;;;;;1.80;0.00;;;;;;;13.15;100.00;98961.27;104026;1269;72674;-53
2023/10/28 04:48:16;;;;;;;0.10;0.00;;;;;;;13.14;100.00;98954.13;105898;1263;65965;-53
2023/10/28 04:50:45;;;;;;;0.70;0.00;;;;;;;13.13;100.00;98947.88;104060;1267;71187;-54
2023/10/28 04:53:12;;;;;;;0.20;0.00;;;;;;;13.13;100.00;98941.40;104062;1263;59746;-53
2023/10/28 04:55:41;;;;;;;2.90;0.00;;;;;;;13.11;100.00;98937.25;104169;1264;60240;-53
2023/10/28 04:58:08;;;;;;;2.30;0.20;;;;;;;13.07;100.00;98918.80;104394;1269;72872;-52
2023/10/28 05:00:36;;;;;;;0.80;0.20;;;;;;;13.02;100.00;98925.60;104094;1263;67040;-54
2023/10/28 05:03:03;;;;;;;0.10;0.10;;;;;;;12.98;100.00;98916.02;104079;1269;72658;-53
2023/10/28 05:05:31;;;;;;;0.20;0.10;;;;;;;12.92;100.00;98915.02;108035;1264;62147;-53
2023/10/28 05:07:58;;;;;;;0.10;0.00;;;;;;;12.83;100.00;98907.36;104038;1264;60655;-54
2023/10/28 05:10:26;;;;;;;3.50;0.10;;;;;;;12.74;100.00;98905.48;108213;1264;70883;-54
2023/10/28 05:12:57;;;;;;;0.70;0.00;;;;;;;12.63;100.00;98889.89;104340;1264;67026;-55
2023/10/28 05:15:24;;;;;;;1.60;0.00;;;;;;;12.54;100.00;98869.48;104004;1263;71069;-53
2023/10/28 05:17:52;;;;;;;2.70;0.00;;;;;;;12.46;100.00;98866.40;103985;1269;60466;-54
2023/10/28 05:20:21;;;;;;;2.50;0.00;;;;;;;12.41;100.00;98861.01;105707;1267;59755;-54
2023/10/28 05:22:48;;;;;;;0.50;0.00;;;;;;;12.36;100.00;98851.65;105834;1264;71821;-54
2023/10/28 05:25:15;;;;;;;0.00;0.00;;;;;;;12.31;100.00;98853.10;104253;1263;67109;-53
2023/10/28 05:27:43;;;;;;;1.30;0.00;;;;;;;12.27;100.00;98844.38;104914;1269;73110;-53
2023/10/28 05:30:11;;;;;;;0.10;0.00;;;;;;;12.21;100.00;98845.72;104370;1264;60437;-53
2023/10/28 05:32:39;;;;;;;0.00;0.00;;;;;;;12.16;100.00;98847.16;104158;1266;59635;-54
2023/10/28 05:35:14;;;;;;;0.00;0.00;;;;;;;12.10;100.00;98839.07;106017;1263;75093;-54
2023/10/28 05:37:41;;;;;;;0.00;0.00;;;;;;;12.05;100.00;98839.41;104327;1261;65077;-53
2023/10/28 05:40:10;;;;;;;0.00;0.00;;;;;;;11.95;100.00;98834.69;104266;1263;72665;-53
2023/10/28 05:42:37;;;;;;;0.10;0.00;;;;;;;11.88;100.00;98829.29;108626;1257;60459;-53
2023/10/28 05:45:07;;;;;;;0.10;0.00;;;;;;;11.81;100.00;98820.42;108521;1257;59097;-52
2023/10/28 05:47:35;;;;;;;0.00;0.00;;;;;;;11.76;100.00;98827.72;106186;1257;72812;-54
2023/10/28 05:50:05;;;;;;;2.40;0.00;;;;;;;11.72;100.00;98810.92;106373;1257;66667;-54
2023/10/28 05:52:34;;;;;;;0.10;0.00;;;;;;;11.66;100.00;98825.85;107371;1260;71493;-53
2023/10/28 05:55:02;;;;;;;2.70;0.00;;;;;;;11.62;100.00;98803.86;105865;1263;60611;-54
2023/10/28 05:57:30;;;;;;;1.70;0.00;;;;;;;11.59;100.00;98815.54;108619;1257;58876;-54
2023/10/28 05:59:58;;;;;;;0.00;0.00;;;;;;;11.55;100.00;98802.00;108633;1257;70834;-52
2023/10/28 06:02:25;;;;;;;0.30;0.00;;;;;;;11.51;100.00;98817.34;108608;1258;66086;-52
2023/10/28 06:04:52;;;;;;;3.20;0.10;;;;;;;11.49;100.00;98817.50;108579;1260;72696;-52
2023/10/28 06:07:20;;;;;;;0.00;0.00;;;;;;;11.47;100.00;98813.73;108605;1260;62865;-52
2023/10/28 06:09:47;;;;;;;1.90;0.00;;;;;;;11.42;100.00;98821.75;108587;1257;60001;-51
2023/10/28 06:12:15;;;;;;;0.10;0.00;;;;;;;11.37;100.00;98835.36;108758;1257;73129;-51
2023/10/28 06:14:42;;;;;;;1.70;0.00;;;;;;;11.31;100.00;98830.35;108744;1257;67684;-52
2023/10/28 06:17:10;;;;;;;0.10;0.00;;;;;;;11.24;100.00;98836.23;108557;1262;71448;-52
2023/10/28 06:19:37;;;;;;;0.20;0.10;;;;;;;11.18;100.00;98841.64;108642;1258;60460;-53
2023/10/28 06:22:05;;;;;;;1.40;0.00;;;;;;;11.12;100.00;98835.09;108738;1257;58795;-51
2023/10/28 06:24:32;;;;;;;1.60;0.00;;;;;;;11.04;100.00;98837.00;108726;1257;73025;-52
2023/10/28 06:27:00;;;;;;;0.90;0.10;;;;;;;10.97;100.00;98823.09;108569;1262;66933;-53
2023/10/28 06:29:28;;;;;;;0.10;0.00;;;;;;;10.91;100.00;98826.89;108715;1258;72732;-52
2023/10/28 06:31:58;;;;;;;4.10;0.00;;;;;;;10.83;100.00;98818.64;108714;1257;60507;-53
2023/10/28 06:34:27;;;;;;;0.00;0.00;;;;;;;10.75;100.00;98820.55;108727;1257;61371;-53
2023/10/28 06:36:55;;;;;;;2.10;0.10;;;;;;;10.70;100.00;98814.30;108700;1258;73109;-52
2023/10/28 06:39:22;;;;;;;0.40;0.00;;;;;;;10.66;100.00;98825.11;108268;1258;66025;-51
2023/10/28 06:41:50;;;;;;;0.10;0.00;;;;;;;10.61;100.00;98818.08;104789;1258;72699;-54
2023/10/28 06:44:20;;;;;;;0.60;0.10;;;;;;;10.57;100.00;98820.46;104317;1265;60478;-55
2023/10/28 06:46:47;;;;;;;0.10;0.00;;;;;;;10.56;100.00;98816.77;104727;1257;60541;-54
2023/10/28 06:49:16;;;;;;;1.20;0.10;;;;;;;10.55;100.00;98814.48;104713;1263;73067;-54
2023/10/28 06:51:43;;;;;;;0.10;0.00;;;;;;;10.54;100.00;98822.98;104653;1263;65622;-52
2023/10/28 06:54:11;;;;;;;0.90;0.00;;;;;;;10.54;100.00;98815.10;104583;1263;72840;-54
2023/10/28 06:56:38;;;;;;;1.40;0.00;;;;;;;10.54;100.00;98814.59;104774;1257;60729;-52
2023/10/28 06:59:05;;;;;;;1.10;0.00;;;;;;;10.52;100.00;98834.93;104674;1263;59766;-54
2023/10/28 07:01:34;;;;;;;0.50;0.10;;;;;;;10.52;100.00;98820.79;104635;1262;73742;-53
2023/10/28 07:04:01;;;;;;;0.70;0.00;;;;;;;10.52;100.00;98831.37;105276;1256;65711;-53
2023/10/28 07:06:29;;;;;;;0.20;0.00;;;;;;;10.53;100.00;98833.64;104705;1264;72724;-55
2023/10/28 07:08:57;;;;;;;0.00;0.00;;;;;;;10.53;100.00;98846.53;107346;1262;61743;-51
2023/10/28 07:11:25;;;;;;;0.10;0.10;;;;;;;10.54;100.00;98855.46;104410;1263;61143;-52
2023/10/28 07:13:52;;;;;;;1.80;0.10;;;;;;;10.54;100.00;98848.08;104607;1263;73126;-53
2023/10/28 07:16:20;;;;;;;1.00;0.00;;;;;;;10.55;100.00;98873.66;105267;1257;65897;-52
2023/10/28 07:18:48;;;;;;;0.30;0.00;;;;;;;10.56;100.00;98882.37;108685;1257;71500;-54
2023/10/28 07:21:16;;;;;;;0.10;0.00;;;;;;;10.60;100.00;98882.54;106770;1262;60438;-53
2023/10/28 07:23:43;;;;;;;0.80;0.10;;;;;;;10.65;100.00;98895.88;104686;1262;60089;-55
2023/10/28 07:26:12;;;;;;;1.30;0.00;;;;;;;10.68;100.00;98912.38;104573;1263;73089;-54
2023/10/28 07:28:40;;;;;;;0.00;0.00;;;;;;;10.70;100.00;98928.73;104532;1262;67387;-53
2023/10/28 07:31:07;;;;;;;0.10;0.10;;;;;;;10.73;100.00;98934.09;104142;1262;73184;-53
2023/10/28 07:33:35;;;;;;;1.80;0.10;;;;;;;10.74;100.00;98933.88;104382;1259;61739;-54
2023/10/28 07:36:04;;;;;;;0.00;0.00;;;;;;;10.75;100.00;98951.39;104558;1263;61728;-52
2023/10/28 07:38:31;;;;;;;0.10;0.00;;;;;;;10.77;100.00;98955.26;108607;1257;71839;-54
2023/10/28 07:40:59;;;;;;;1.30;0.10;;;;;;;10.77;100.00;98960.94;108689;1257;65564;-53
2023/10/28 07:43:26;;;;;;;0.00;0.00;;;;;;;10.78;100.00;98978.84;108577;1263;71258;-52
2023/10/28 07:45:54;;;;;;;0.00;0.00;;;;;;;10.79;100.00;98985.61;106160;1263;61738;-53
2023/10/28 07:48:21;;;;;;;0.60;0.10;;;;;;;10.80;100.00;99001.36;104527;1263;60082;-51
2023/10/28 07:50:48;;;;;;;0.10;0.00;;;;;;;10.79;100.00;99000.65;104526;1263;71681;-52
2023/10/28 07:53:17;;;;;;;0.10;0.00;;;;;;;10.80;100.00;99011.23;104279;1262;64689;-52
2023/10/28 07:55:44;;;;;;;0.60;0.00;;;;;;;10.82;100.00;99027.96;104849;1263;71382;-52
2023/10/28 07:58:12;;;;;;;0.10;0.10;;;;;;;10.83;100.00;99034.17;104704;1267;60506;-54
2023/10/28 08:00:39;;;;;;;0.20;0.00;;;;;;;10.83;100.00;99045.67;104725;1257;60727;-51
2023/10/28 08:03:07;;;;;;;1.70;0.10;;;;;;;10.82;100.00;99051.11;104742;1263;71825;-52
2023/10/28 08:05:35;;;;;;;0.10;0.10;;;;;;;10.82;100.00;99060.41;105430;1264;65801;-54
2023/10/28 08:08:03;;;;;;;0.30;0.00;;;;;;;10.84;100.00;99060.86;104626;1263;72707;-50
2023/10/28 08:10:32;;;;;;;1.00;0.10;;;;;;;10.85;100.00;99075.50;104424;1260;60519;-54
2023/10/28 08:13:01;;;;;;;0.10;0.10;;;;;;;10.87;100.00;99085.25;104721;1270;59566;-54
2023/10/28 08:15:29;;;;;;;0.10;0.10;;;;;;;10.88;100.00;99104.03;104521;1263;73649;-51
2023/10/28 08:17:56;;;;;;;0.10;0.10;;;;;;;10.90;100.00;99111.98;104719;1262;67870;-53
2023/10/28 08:20:24;;;;;;;0.10;0.10;;;;;;;10.93;100.00;99124.23;104765;1262;72457;-54
2023/10/28 08:22:51;;;;;;;0.10;0.10;;;;;;;10.95;100.00;99132.35;108639;1260;61724;-54
2023/10/28 08:25:19;;;;;;;0.10;0.10;;;;;;;10.97;100.00;99140.88;105574;1263;60534;-53
2023/10/28 08:27:47;;;;;;;0.00;0.00;;;;;;;11.00;100.00;99159.70;104648;1269;73579;-52
2023/10/28 08:30:15;;;;;;;0.10;0.10;;;;;;;11.03;100.00;99182.30;108745;1257;65646;-53
2023/10/28 08:32:43;;;;;;;0.10;0.10;;;;;;;11.08;100.00;99189.58;108772;1261;71492;-54
2023/10/28 08:35:11;;;;;;;0.10;0.10;;;;;;;11.11;100.00;99197.83;104743;1262;60555;-52
2023/10/28 08:37:39;;;;;;;0.10;0.10;;;;;;;11.12;100.00;99205.33;104690;1258;61242;-53
2023/10/28 08:40:10;;;;;;;0.10;0.10;;;;;;;11.13;100.00;99225.90;104613;1265;72619;-53
2023/10/28 08:42:38;;;;;;;0.10;0.00;;;;;;;11.16;100.00;99242.75;104664;1263;65981;-52
2023/10/28 08:45:08;;;;;;;1.00;0.10;;;;;;;11.20;100.00;99239.48;104391;1267;72731;-52
2023/10/28 08:47:36;;;;;;;2.10;0.10;;;;;;;11.26;100.00;99261.20;108733;1260;60501;-53
2023/10/28 08:50:06;;;;;;;0.10;0.10;;;;;;;11.32;100.00;99265.70;108581;1256;59798;-53
2023/10/28 08:52:37;;;;;;;1.20;0.10;;;;;;;11.37;100.00;99281.57;108721;1257;73950;-54
2023/10/28 08:55:07;;;;;;;0.20;0.10;;;;;;;11.45;100.00;99294.25;108788;1260;67454;-53
2023/10/28 08:57:37;;;;;;;0.10;0.10;;;;;;;11.51;100.00;99320.42;105192;1263;73196;-52
2023/10/28 09:00:14;;;;;;;0.10;0.10;;;;;;;11.56;100.00;99333.27;104664;1257;60530;-52
2023/10/28 09:02:47;;;;;;;0.30;0.10;;;;;;;11.60;100.00;99360.02;108895;1256;58853;-54
2023/10/28 09:05:14;;;;;;;0.70;0.10;;;;;;;11.60;100.00;99362.69;108724;1257;73913;-53
2023/10/28 09:07:43;;;;;;;0.20;0.10;;;;;;;11.60;100.00;99367.54;108650;1260;67045;-52
2023/10/28 09:10:11;;;;;;;0.00;0.00;;;;;;;11.61;100.00;99376.32;108706;1263;72682;-54
2023/10/28 09:12:39;;;;;;;0.10;0.10;;;;;;;11.59;100.00;99374.77;108672;1256;61768;-53
2023/10/28 09:15:08;;;;;;;0.10;0.10;;;;;;;11.58;100.00;99384.16;108686;1257;58884;-53
2023/10/28 09:17:36;;;;;;;0.10;0.10;;;;;;;11.56;100.00;99392.05;108703;1258;72660;-53
2023/10/28 09:20:09;;;;;;;0.20;0.10;;;;;;;11.55;100.00;99405.95;108802;1257;65644;-53
2023/10/28 09:22:41;;;;;;;0.20;0.10;;;;;;;11.56;100.00;99403.20;108694;1257;72758;-54
2023/10/28 09:25:10;;;;;;;0.30;0.10;;;;;;;11.59;100.00;99411.47;108713;1263;60027;-53
2023/10/28 09:27:38;;;;;;;0.30;0.20;;;;;;;11.61;100.00;99422.67;108678;1257;60452;-54
2023/10/28 09:30:07;;;;;;;2.50;0.10;;;;;;;11.61;100.00;99421.08;108610;1260;73944;-53
2023/10/28 09:32:35;;;;;;;0.10;0.10;;;;;;;11.62;100.00;99433.77;108684;1257;66345;-53
2023/10/28 09:35:05;;;;;;;0.10;0.10;;;;;;;11.61;100.00;99442.25;108786;1257;73467;-53
2023/10/28 09:37:39;;;;;;;0.90;0.10;;;;;;;11.59;100.00;99449.02;108656;1257;61752;-54
2023/10/28 09:40:08;;;;;;;0.20;0.10;;;;;;;11.59;100.00;99459.81;108759;1257;58708;-53
2023/10/28 09:42:36;;;;;;;0.20;0.10;;;;;;;11.60;100.00;99453.11;108703;1257;73994;-54
2023/10/28 09:45:05;;;;;;;0.40;0.20;;;;;;;11.61;100.00;99471.35;108659;1263;66919;-52
2023/10/28 09:47:57;;;;;;;1.90;0.10;;;;;;;11.63;100.00;99469.83;108746;1257;72748;-52
2023/10/28 09:50:27;;;;;;;0.10;0.10;;;;;;;11.66;100.00;99519.74;108625;1257;61641;-53
2023/10/28 09:52:56;;;;;;;1.80;0.10;;;;;;;11.69;100.00;99497.13;108791;1259;60644;-53
2023/10/28 09:55:27;;;;;;;0.10;0.10;;;;;;;11.71;100.00;99511.77;105704;1258;73928;-52
2023/10/28 09:58:19;;;;;;;0.20;0.10;;;;;;;11.72;100.00;99520.17;104567;1260;64773;-52
2023/10/28 10:00:48;;;;;;;0.10;0.10;;;;;;;11.73;100.00;99554.83;104504;1257;72786;-53
2023/10/28 10:03:28;;;;;;;0.10;0.10;;;;;;;11.74;100.00;99551.84;105373;1263;61740;-53
2023/10/28 10:05:56;;;;;;;1.40;0.10;;;;;;;11.77;100.00;99564.52;105932;1263;59166;-53
2023/10/28 10:08:24;;;;;;;1.50;0.10;;;;;;;11.78;100.00;99574.54;108620;1260;73935;-53
2023/10/28 10:10:53;;;;;;;0.10;0.10;;;;;;;11.80;100.00;99589.88;104698;1264;65877;-52
2023/10/28 10:13:22;;;;;;;0.20;0.20;;;;;;;11.82;100.00;99602.48;104729;1257;71482;-51
2023/10/28 10:15:54;;;;;;;1.20;0.20;;;;;;;11.86;100.00;99617.20;104357;1266;60618;-53
2023/10/28 10:18:47;;;;;;;1.30;0.20;;;;;;;11.90;100.00;99635.50;106615;1263;60560;-53
2023/10/28 10:21:18;;;;;;;0.20;0.10;;;;;;;11.95;100.00;99679.83;107434;1263;72689;-53
2023/10/28 10:23:50;;;;;;;0.20;0.20;;;;;;;11.96;100.00;99660.38;104521;1263;68239;-51
2023/10/28 10:26:34;;;;;;;0.30;0.10;;;;;;;11.97;100.00;99665.70;104570;1264;71822;-52
2023/10/28 10:29:05;;;;;;;0.20;0.20;;;;;;;11.96;100.00;99693.23;104524;1259;60533;-52
2023/10/28 10:31:35;;;;;;;1.50;0.10;;;;;;;11.97;100.00;99690.70;104484;1260;60963;-52
2023/10/28 10:34:05;;;;;;;1.80;0.10;;;;;;;11.98;100.00;99698.38;105529;1261;73893;-52
2023/10/28 10:36:36;;;;;;;0.20;0.10;;;;;;;11.98;100.00;99705.92;105037;1263;66884;-53
2023/10/28 10:39:11;;;;;;;0.20;0.20;;;;;;;11.98;100.00;99706.64;104470;1263;71477;-52
2023/10/28 10:41:38;;;;;;;;;;;;;;;11.99;100.00;99717.77;104739;1260;60540;-53
2023/10/28 10:44:31;;;;;;;0.20;0.10;;;;;;;11.98;100.00;99708.23;104492;1260;60496;-53
2023/10/28 10:46:59;;;;;;;0.10;0.10;;;;;;;11.96;100.00;99736.02;105624;1261;73957;-52
2023/10/28 10:49:30;;;;;;;0.10;0.10;;;;;;;11.98;100.00;99710.06;104879;1264;67103;-52
2023/10/28 10:51:58;;;;;;;0.10;0.10;;;;;;;12.03;100.00;99725.78;104902;1264;70393;-52
2023/10/28 10:54:30;;;;;;;1.40;0.10;;;;;;;12.10;100.00;99733.14;107082;1263;61459;-53
2023/10/28 10:56:58;;;;;;;0.30;0.10;;;;;;;12.20;100.00;99750.41;105513;1263;60382;-53
2023/10/28 10:59:28;;;;;;;0.60;0.10;;;;;;;12.28;100.00;99752.97;104384;1260;72646;-52
2023/10/28 11:01:56;;;;;;;1.70;0.10;;;;;;;12.37;100.00;99769.95;104792;1264;66467;-53
2023/10/28 11:04:25;;;;;;;0.20;0.20;;;;;;;12.44;100.00;99788.25;104576;1261;72687;-51
2023/10/28 11:06:52;;;;;;;1.60;0.10;;;;;;;12.47;100.00;99801.60;105060;1260;60555;-51
2023/10/28 11:09:21;;;;;;;0.80;0.10;;;;;;;12.50;100.00;99822.66;108344;1260;58848;-52
2023/10/28 11:11:49;;;;;;;0.10;0.10;;;;;;;12.54;100.00;99831.28;108607;1260;73915;-52
2023/10/28 11:14:16;;;;;;;0.10;0.10;;;;;;;12.56;100.00;99843.59;107785;1261;64764;-52
2023/10/28 11:16:44;;;;;;;0.10;0.10;;;;;;;12.59;100.00;99855.17;105259;1261;71478;-52
2023/10/28 11:19:11;;;;;;;0.50;0.10;;;;;;;12.62;100.00;99859.84;104286;1260;60460;-53
2023/10/28 11:21:41;;;;;;;0.80;0.10;;;;;;;12.65;100.00;99872.60;104487;1264;60469;-52
2023/10/28 11:24:10;;;;;;;0.70;0.00;;;;;;;12.70;100.00;99886.73;104502;1257;74401;-52
2023/10/28 11:26:37;;;;;;;1.40;0.20;;;;;;;12.72;100.00;99899.93;107605;1257;66051;-52